sensor_id;sensor_type;location;lat;lon;timestamp;temperature;humidity
25877;DHT22;13692;47.480;19.216;2022-12-16T00:00:06;3.00;99.90
25877;DHT22;13692;47.480;19.216;2022-12-16T00:02:35;3.00;99.90
25877;DHT22;13692;47.480;19.216;2022-12-16T00:05:03;3.00;99.90
25877;DHT22;13692;47.480;19.216;2022-12-16T00:07:30;3.00;99.90
25877;DHT22;13692;47.480;19.216;2022-12-16T00:09:57;3.10;99.90
25877;DHT22;13692;47.480;19.216;2022-12-16T00:12:24;3.10;99.90
25877;DHT22;13692;47.480;19.216;2022-12-16T00:14:51;3.10;99.90
25877;DHT22;13692;47.480;19.216;2022-12-16T00:17:20;3.20;99.90
25877;DHT22;13692;47.480;19.216;2022-12-16T00:19:47;3.10;99.90
25877;DHT22;13692;47.480;19.216;2022-12-16T00:22:14;3.20;99.90
25877;DHT22;13692;47.480;19.216;2022-12-16T00:24:40;3.20;99.90
25877;DHT22;13692;47.480;19.216;2022-12-16T00:27:07;3.20;99.90
25877;DHT22;13692;47.480;19.216;2022-12-16T00:29:34;3.20;99.90
25877;DHT22;13692;47.480;19.216;2022-12-16T00:32:01;3.20;99.90
25877;DHT22;13692;47.480;19.216;2022-12-16T00:34:28;3.20;99.90
25877;DHT22;13692;47.480;19.216;2022-12-16T00:36:55;3.20;99.90
25877;DHT22;13692;47.480;19.216;2022-12-16T00:39:22;3.20;99.90
25877;DHT22;13692;47.480;19.216;2022-12-16T00:41:49;3.20;99.90
25877;DHT22;13692;47.480;19.216;2022-12-16T00:44:17;3.30;99.90
25877;DHT22;13692;47.480;19.216;2022-12-16T00:46:44;3.30;99.90
25877;DHT22;13692;47.480;19.216;2022-12-16T00:49:11;3.30;99.90
25877;DHT22;13692;47.480;19.216;2022-12-16T00:51:38;3.30;99.90
25877;DHT22;13692;47.480;19.216;2022-12-16T00:54:05;3.20;99.90
25877;DHT22;13692;47.480;19.216;2022-12-16T00:56:32;3.20;99.90
25877;DHT22;13692;47.480;19.216;2022-12-16T00:58:59;3.20;99.90
25877;DHT22;13692;47.480;19.216;2022-12-16T01:01:26;3.20;99.90
25877;DHT22;13692;47.480;19.216;2022-12-16T01:03:55;3.30;99.90
25877;DHT22;13692;47.480;19.216;2022-12-16T01:06:23;3.30;99.90
25877;DHT22;13692;47.480;19.216;2022-12-16T01:08:50;3.30;99.90
25877;DHT22;13692;47.480;19.216;2022-12-16T01:11:18;3.30;99.90
25877;DHT22;13692;47.480;19.216;2022-12-16T01:13:48;3.30;99.90
25877;DHT22;13692;47.480;19.216;2022-12-16T01:16:17;3.30;99.90
25877;DHT22;13692;47.480;19.216;2022-12-16T01:18:44;3.30;99.90
25877;DHT22;13692;47.480;19.216;2022-12-16T01:21:13;3.20;99.90
25877;DHT22;13692;47.480;19.216;2022-12-16T01:23:41;3.20;99.90
25877;DHT22;13692;47.480;19.216;2022-12-16T01:26:14;3.20;99.90
25877;DHT22;13692;47.480;19.216;2022-12-16T01:28:42;3.20;99.90
25877;DHT22;13692;47.480;19.216;2022-12-16T01:31:09;3.20;99.90
25877;DHT22;13692;47.480;19.216;2022-12-16T01:33:36;3.20;99.90
25877;DHT22;13692;47.480;19.216;2022-12-16T01:36:05;3.30;99.90
25877;DHT22;13692;47.480;19.216;2022-12-16T01:38:33;3.30;99.90
25877;DHT22;13692;47.480;19.216;2022-12-16T01:41:02;3.30;99.90
25877;DHT22;13692;47.480;19.216;2022-12-16T01:43:36;3.30;99.90
25877;DHT22;13692;47.480;19.216;2022-12-16T01:48:58;3.30;99.90
25877;DHT22;13692;47.480;19.216;2022-12-16T01:51:37;3.40;99.90
25877;DHT22;13692;47.480;19.216;2022-12-16T01:54:07;3.30;99.90
25877;DHT22;13692;47.480;19.216;2022-12-16T01:56:40;3.40;99.90
25877;DHT22;13692;47.480;19.216;2022-12-16T01:59:10;3.40;99.90
25877;DHT22;13692;47.480;19.216;2022-12-16T02:01:40;3.40;99.90
25877;DHT22;13692;47.480;19.216;2022-12-16T02:04:07;3.40;99.90
25877;DHT22;13692;47.480;19.216;2022-12-16T02:06:34;3.40;99.90
25877;DHT22;13692;47.480;19.216;2022-12-16T02:09:06;3.40;99.90
25877;DHT22;13692;47.480;19.216;2022-12-16T02:11:58;3.40;99.90
25877;DHT22;13692;47.480;19.216;2022-12-16T02:17:48;3.40;99.90
25877;DHT22;13692;47.480;19.216;2022-12-16T02:31:50;3.50;99.90
25877;DHT22;13692;47.480;19.216;2022-12-16T02:34:35;3.50;99.90
25877;DHT22;13692;47.480;19.216;2022-12-16T02:40:02;3.50;99.90
25877;DHT22;13692;47.480;19.216;2022-12-16T02:42:33;3.60;99.90
25877;DHT22;13692;47.480;19.216;2022-12-16T02:45:17;3.60;99.90
25877;DHT22;13692;47.480;19.216;2022-12-16T02:47:45;3.60;99.90
25877;DHT22;13692;47.480;19.216;2022-12-16T02:50:35;3.60;99.90
25877;DHT22;13692;47.480;19.216;2022-12-16T02:53:06;3.70;99.90
25877;DHT22;13692;47.480;19.216;2022-12-16T02:58:23;3.70;99.90
25877;DHT22;13692;47.480;19.216;2022-12-16T03:01:18;3.70;99.90
25877;DHT22;13692;47.480;19.216;2022-12-16T03:06:24;3.80;99.90
25877;DHT22;13692;47.480;19.216;2022-12-16T03:08:56;3.90;99.90
25877;DHT22;13692;47.480;19.216;2022-12-16T03:11:27;3.90;99.90
25877;DHT22;13692;47.480;19.216;2022-12-16T03:13:56;3.80;99.90
25877;DHT22;13692;47.480;19.216;2022-12-16T03:16:26;3.80;99.90
25877;DHT22;13692;47.480;19.216;2022-12-16T03:19:02;3.90;99.90
25877;DHT22;13692;47.480;19.216;2022-12-16T03:21:35;3.90;99.90
25877;DHT22;13692;47.480;19.216;2022-12-16T03:24:08;3.80;99.90
25877;DHT22;13692;47.480;19.216;2022-12-16T03:26:42;3.80;99.90
25877;DHT22;13692;47.480;19.216;2022-12-16T03:32:06;3.60;99.90
25877;DHT22;13692;47.480;19.216;2022-12-16T03:34:43;3.60;99.90
25877;DHT22;13692;47.480;19.216;2022-12-16T03:37:12;3.60;99.90
25877;DHT22;13692;47.480;19.216;2022-12-16T03:39:51;3.60;99.90
25877;DHT22;13692;47.480;19.216;2022-12-16T03:42:18;3.60;99.90
25877;DHT22;13692;47.480;19.216;2022-12-16T03:44:46;3.70;99.90
25877;DHT22;13692;47.480;19.216;2022-12-16T03:47:13;3.60;99.90
25877;DHT22;13692;47.480;19.216;2022-12-16T03:49:49;3.70;99.90
25877;DHT22;13692;47.480;19.216;2022-12-16T03:52:16;3.70;99.90
25877;DHT22;13692;47.480;19.216;2022-12-16T03:54:43;3.80;99.90
25877;DHT22;13692;47.480;19.216;2022-12-16T03:57:10;3.80;99.90
25877;DHT22;13692;47.480;19.216;2022-12-16T03:59:41;3.80;99.90
25877;DHT22;13692;47.480;19.216;2022-12-16T04:02:08;3.80;99.90
25877;DHT22;13692;47.480;19.216;2022-12-16T04:04:35;3.80;99.90
25877;DHT22;13692;47.480;19.216;2022-12-16T04:07:02;3.80;99.90
25877;DHT22;13692;47.480;19.216;2022-12-16T04:09:48;3.90;99.90
25877;DHT22;13692;47.480;19.216;2022-12-16T04:12:16;3.90;99.90
25877;DHT22;13692;47.480;19.216;2022-12-16T04:15:01;3.90;99.90
25877;DHT22;13692;47.480;19.216;2022-12-16T04:17:47;4.00;99.90
25877;DHT22;13692;47.480;19.216;2022-12-16T04:20:35;4.00;99.90
25877;DHT22;13692;47.480;19.216;2022-12-16T04:23:23;4.00;99.90
25877;DHT22;13692;47.480;19.216;2022-12-16T04:26:10;4.00;99.90
25877;DHT22;13692;47.480;19.216;2022-12-16T04:28:37;4.00;99.90
25877;DHT22;13692;47.480;19.216;2022-12-16T04:31:04;4.10;99.90
25877;DHT22;13692;47.480;19.216;2022-12-16T04:33:31;4.20;99.90
25877;DHT22;13692;47.480;19.216;2022-12-16T04:36:17;4.30;99.90
25877;DHT22;13692;47.480;19.216;2022-12-16T04:39:03;4.30;99.90
25877;DHT22;13692;47.480;19.216;2022-12-16T04:41:54;4.40;99.90
25877;DHT22;13692;47.480;19.216;2022-12-16T04:44:40;4.40;99.90
25877;DHT22;13692;47.480;19.216;2022-12-16T04:47:26;4.30;99.90
25877;DHT22;13692;47.480;19.216;2022-12-16T04:50:12;4.30;99.90
25877;DHT22;13692;47.480;19.216;2022-12-16T04:52:57;4.40;99.90
25877;DHT22;13692;47.480;19.216;2022-12-16T04:55:42;4.40;99.90
25877;DHT22;13692;47.480;19.216;2022-12-16T04:58:30;4.30;99.90
25877;DHT22;13692;47.480;19.216;2022-12-16T05:01:16;4.30;99.90
25877;DHT22;13692;47.480;19.216;2022-12-16T05:04:02;4.30;99.90
25877;DHT22;13692;47.480;19.216;2022-12-16T05:07:07;4.40;99.90
25877;DHT22;13692;47.480;19.216;2022-12-16T05:09:52;4.30;99.90
25877;DHT22;13692;47.480;19.216;2022-12-16T05:12:38;4.30;99.90
25877;DHT22;13692;47.480;19.216;2022-12-16T05:15:23;4.40;99.90
25877;DHT22;13692;47.480;19.216;2022-12-16T05:18:10;4.30;99.90
25877;DHT22;13692;47.480;19.216;2022-12-16T05:21:00;4.30;99.90
25877;DHT22;13692;47.480;19.216;2022-12-16T05:23:47;4.30;99.90
25877;DHT22;13692;47.480;19.216;2022-12-16T05:26:32;4.30;99.90
25877;DHT22;13692;47.480;19.216;2022-12-16T05:29:18;4.30;99.90
25877;DHT22;13692;47.480;19.216;2022-12-16T05:32:04;4.40;99.90
25877;DHT22;13692;47.480;19.216;2022-12-16T05:34:50;4.50;99.90
25877;DHT22;13692;47.480;19.216;2022-12-16T05:37:35;4.50;99.90
25877;DHT22;13692;47.480;19.216;2022-12-16T05:40:21;4.60;99.90
25877;DHT22;13692;47.480;19.216;2022-12-16T05:43:06;4.70;99.90
25877;DHT22;13692;47.480;19.216;2022-12-16T05:45:52;4.70;99.90
25877;DHT22;13692;47.480;19.216;2022-12-16T05:48:37;4.70;99.90
25877;DHT22;13692;47.480;19.216;2022-12-16T05:51:23;4.80;99.90
25877;DHT22;13692;47.480;19.216;2022-12-16T05:54:08;4.80;99.90
25877;DHT22;13692;47.480;19.216;2022-12-16T05:56:54;4.90;99.90
25877;DHT22;13692;47.480;19.216;2022-12-16T05:59:39;4.90;99.90
25877;DHT22;13692;47.480;19.216;2022-12-16T06:02:25;5.00;99.90
25877;DHT22;13692;47.480;19.216;2022-12-16T06:05:11;4.90;99.90
25877;DHT22;13692;47.480;19.216;2022-12-16T06:07:56;4.90;99.90
25877;DHT22;13692;47.480;19.216;2022-12-16T06:10:42;5.00;99.90
25877;DHT22;13692;47.480;19.216;2022-12-16T06:13:27;5.00;99.90
25877;DHT22;13692;47.480;19.216;2022-12-16T06:16:13;5.00;99.90
25877;DHT22;13692;47.480;19.216;2022-12-16T06:18:58;5.00;99.90
25877;DHT22;13692;47.480;19.216;2022-12-16T06:21:44;5.10;99.90
25877;DHT22;13692;47.480;19.216;2022-12-16T06:24:29;5.00;99.90
25877;DHT22;13692;47.480;19.216;2022-12-16T06:27:15;5.00;99.90
25877;DHT22;13692;47.480;19.216;2022-12-16T06:30:01;5.00;99.90
25877;DHT22;13692;47.480;19.216;2022-12-16T06:32:46;5.10;99.90
25877;DHT22;13692;47.480;19.216;2022-12-16T06:35:32;5.10;99.90
25877;DHT22;13692;47.480;19.216;2022-12-16T06:38:17;5.00;99.90
25877;DHT22;13692;47.480;19.216;2022-12-16T06:41:03;5.10;99.90
25877;DHT22;13692;47.480;19.216;2022-12-16T06:43:48;5.10;99.90
25877;DHT22;13692;47.480;19.216;2022-12-16T06:46:34;5.00;99.90
25877;DHT22;13692;47.480;19.216;2022-12-16T06:49:19;5.00;99.90
25877;DHT22;13692;47.480;19.216;2022-12-16T06:52:05;5.00;99.90
25877;DHT22;13692;47.480;19.216;2022-12-16T06:54:50;5.10;99.90
25877;DHT22;13692;47.480;19.216;2022-12-16T06:57:36;5.10;99.90
25877;DHT22;13692;47.480;19.216;2022-12-16T07:00:21;5.10;99.90
25877;DHT22;13692;47.480;19.216;2022-12-16T07:03:07;5.10;99.90
25877;DHT22;13692;47.480;19.216;2022-12-16T07:05:58;5.10;99.90
25877;DHT22;13692;47.480;19.216;2022-12-16T07:08:43;5.20;99.90
25877;DHT22;13692;47.480;19.216;2022-12-16T07:11:29;5.20;99.90
25877;DHT22;13692;47.480;19.216;2022-12-16T07:14:14;5.20;99.90
25877;DHT22;13692;47.480;19.216;2022-12-16T07:16:59;5.10;99.90
25877;DHT22;13692;47.480;19.216;2022-12-16T07:19:45;5.10;99.90
25877;DHT22;13692;47.480;19.216;2022-12-16T07:22:31;5.10;99.90
25877;DHT22;13692;47.480;19.216;2022-12-16T07:25:29;5.10;99.90
25877;DHT22;13692;47.480;19.216;2022-12-16T07:28:15;5.20;99.90
25877;DHT22;13692;47.480;19.216;2022-12-16T07:31:00;5.20;99.90
25877;DHT22;13692;47.480;19.216;2022-12-16T07:33:46;5.30;99.90
25877;DHT22;13692;47.480;19.216;2022-12-16T07:36:32;5.30;99.90
25877;DHT22;13692;47.480;19.216;2022-12-16T07:39:22;5.30;99.90
25877;DHT22;13692;47.480;19.216;2022-12-16T07:42:07;5.30;99.90
25877;DHT22;13692;47.480;19.216;2022-12-16T07:44:53;5.30;99.90
25877;DHT22;13692;47.480;19.216;2022-12-16T07:47:46;5.30;99.90
25877;DHT22;13692;47.480;19.216;2022-12-16T07:50:32;5.30;99.90
25877;DHT22;13692;47.480;19.216;2022-12-16T07:53:18;5.40;99.90
25877;DHT22;13692;47.480;19.216;2022-12-16T07:56:05;5.30;99.90
25877;DHT22;13692;47.480;19.216;2022-12-16T07:58:51;5.30;99.90
25877;DHT22;13692;47.480;19.216;2022-12-16T08:01:36;5.40;99.90
25877;DHT22;13692;47.480;19.216;2022-12-16T08:04:22;5.40;99.90
25877;DHT22;13692;47.480;19.216;2022-12-16T08:07:07;5.40;99.90
25877;DHT22;13692;47.480;19.216;2022-12-16T08:09:53;5.40;99.90
25877;DHT22;13692;47.480;19.216;2022-12-16T08:12:38;5.50;99.90
25877;DHT22;13692;47.480;19.216;2022-12-16T08:15:24;5.50;99.90
25877;DHT22;13692;47.480;19.216;2022-12-16T08:18:09;5.70;99.90
25877;DHT22;13692;47.480;19.216;2022-12-16T08:20:55;5.80;99.90
25877;DHT22;13692;47.480;19.216;2022-12-16T08:23:40;5.90;99.90
25877;DHT22;13692;47.480;19.216;2022-12-16T08:26:26;5.90;99.90
25877;DHT22;13692;47.480;19.216;2022-12-16T08:29:12;5.90;99.90
25877;DHT22;13692;47.480;19.216;2022-12-16T08:32:14;5.90;99.90
25877;DHT22;13692;47.480;19.216;2022-12-16T08:34:59;5.90;99.90
25877;DHT22;13692;47.480;19.216;2022-12-16T08:37:46;5.90;99.90
25877;DHT22;13692;47.480;19.216;2022-12-16T08:40:40;5.90;99.90
25877;DHT22;13692;47.480;19.216;2022-12-16T08:43:29;5.90;99.90
25877;DHT22;13692;47.480;19.216;2022-12-16T08:46:14;5.90;99.90
25877;DHT22;13692;47.480;19.216;2022-12-16T08:49:00;6.00;99.90
25877;DHT22;13692;47.480;19.216;2022-12-16T08:51:46;5.90;99.90
25877;DHT22;13692;47.480;19.216;2022-12-16T08:54:42;6.00;99.90
25877;DHT22;13692;47.480;19.216;2022-12-16T08:57:28;6.10;99.90
25877;DHT22;13692;47.480;19.216;2022-12-16T09:00:13;6.20;99.90
25877;DHT22;13692;47.480;19.216;2022-12-16T09:02:59;6.30;99.90
25877;DHT22;13692;47.480;19.216;2022-12-16T09:05:45;6.40;99.90
25877;DHT22;13692;47.480;19.216;2022-12-16T09:08:51;6.40;99.90
25877;DHT22;13692;47.480;19.216;2022-12-16T09:11:36;6.50;99.90
25877;DHT22;13692;47.480;19.216;2022-12-16T09:14:21;6.60;99.90
25877;DHT22;13692;47.480;19.216;2022-12-16T09:17:06;6.60;99.90
25877;DHT22;13692;47.480;19.216;2022-12-16T09:19:52;6.50;99.90
25877;DHT22;13692;47.480;19.216;2022-12-16T09:22:37;6.60;99.90
25877;DHT22;13692;47.480;19.216;2022-12-16T09:25:23;6.60;99.90
25877;DHT22;13692;47.480;19.216;2022-12-16T09:28:09;6.70;99.90
25877;DHT22;13692;47.480;19.216;2022-12-16T09:30:54;6.70;99.90
25877;DHT22;13692;47.480;19.216;2022-12-16T09:33:40;6.70;99.90
25877;DHT22;13692;47.480;19.216;2022-12-16T09:36:25;6.80;99.90
25877;DHT22;13692;47.480;19.216;2022-12-16T09:39:11;6.70;99.90
25877;DHT22;13692;47.480;19.216;2022-12-16T09:42:08;6.70;99.90
25877;DHT22;13692;47.480;19.216;2022-12-16T09:51:13;6.70;99.90
25877;DHT22;13692;47.480;19.216;2022-12-16T09:54:01;6.70;99.90
25877;DHT22;13692;47.480;19.216;2022-12-16T09:56:48;6.70;99.90
25877;DHT22;13692;47.480;19.216;2022-12-16T09:59:37;6.70;99.90
25877;DHT22;13692;47.480;19.216;2022-12-16T10:02:25;6.80;99.90
25877;DHT22;13692;47.480;19.216;2022-12-16T10:05:12;6.80;99.90
25877;DHT22;13692;47.480;19.216;2022-12-16T10:08:10;6.80;99.90
25877;DHT22;13692;47.480;19.216;2022-12-16T10:11:39;6.80;99.90
25877;DHT22;13692;47.480;19.216;2022-12-16T10:14:29;6.80;99.90
25877;DHT22;13692;47.480;19.216;2022-12-16T10:17:22;6.80;99.90
25877;DHT22;13692;47.480;19.216;2022-12-16T10:23:32;6.70;99.90
25877;DHT22;13692;47.480;19.216;2022-12-16T10:26:52;6.70;99.90
25877;DHT22;13692;47.480;19.216;2022-12-16T10:29:41;6.70;99.90
25877;DHT22;13692;47.480;19.216;2022-12-16T10:32:43;6.70;99.90
25877;DHT22;13692;47.480;19.216;2022-12-16T10:35:41;6.80;99.90
25877;DHT22;13692;47.480;19.216;2022-12-16T10:38:42;6.80;99.90
25877;DHT22;13692;47.480;19.216;2022-12-16T10:41:33;6.80;99.90
25877;DHT22;13692;47.480;19.216;2022-12-16T10:44:36;6.80;99.90
25877;DHT22;13692;47.480;19.216;2022-12-16T10:47:23;6.80;99.90
25877;DHT22;13692;47.480;19.216;2022-12-16T10:50:12;6.90;99.90
25877;DHT22;13692;47.480;19.216;2022-12-16T10:53:00;6.90;99.90
25877;DHT22;13692;47.480;19.216;2022-12-16T10:59:10;6.90;99.90
25877;DHT22;13692;47.480;19.216;2022-12-16T11:02:03;6.80;99.90
25877;DHT22;13692;47.480;19.216;2022-12-16T11:04:49;6.80;99.90
25877;DHT22;13692;47.480;19.216;2022-12-16T11:13:35;6.70;99.90
25877;DHT22;13692;47.480;19.216;2022-12-16T11:16:25;6.70;99.90
25877;DHT22;13692;47.480;19.216;2022-12-16T11:19:24;6.70;99.90
25877;DHT22;13692;47.480;19.216;2022-12-16T11:22:18;6.70;99.90
25877;DHT22;13692;47.480;19.216;2022-12-16T11:25:16;6.70;99.90
25877;DHT22;13692;47.480;19.216;2022-12-16T11:28:13;6.70;99.90
25877;DHT22;13692;47.480;19.216;2022-12-16T11:31:05;6.70;99.90
25877;DHT22;13692;47.480;19.216;2022-12-16T11:33:53;6.70;99.90
25877;DHT22;13692;47.480;19.216;2022-12-16T11:36:40;6.70;99.90
25877;DHT22;13692;47.480;19.216;2022-12-16T11:39:28;6.70;99.90
25877;DHT22;13692;47.480;19.216;2022-12-16T11:42:23;6.70;99.90
25877;DHT22;13692;47.480;19.216;2022-12-16T11:45:15;6.70;99.90
25877;DHT22;13692;47.480;19.216;2022-12-16T11:51:21;6.70;99.90
25877;DHT22;13692;47.480;19.216;2022-12-16T11:54:14;6.60;99.90
25877;DHT22;13692;47.480;19.216;2022-12-16T11:57:03;6.50;99.90
25877;DHT22;13692;47.480;19.216;2022-12-16T11:59:58;6.50;99.90
25877;DHT22;13692;47.480;19.216;2022-12-16T12:06:02;6.50;99.90
25877;DHT22;13692;47.480;19.216;2022-12-16T12:08:52;6.50;99.90
25877;DHT22;13692;47.480;19.216;2022-12-16T12:11:56;6.40;99.90
25877;DHT22;13692;47.480;19.216;2022-12-16T12:14:55;6.40;99.90
25877;DHT22;13692;47.480;19.216;2022-12-16T12:21:13;6.40;99.90
25877;DHT22;13692;47.480;19.216;2022-12-16T12:24:24;6.40;99.90
25877;DHT22;13692;47.480;19.216;2022-12-16T12:30:15;6.40;99.90
25877;DHT22;13692;47.480;19.216;2022-12-16T12:48:18;6.30;99.90
25877;DHT22;13692;47.480;19.216;2022-12-16T12:54:35;6.40;99.90
25877;DHT22;13692;47.480;19.216;2022-12-16T12:57:25;6.50;99.90
25877;DHT22;13692;47.480;19.216;2022-12-16T13:00:21;6.60;99.90
25877;DHT22;13692;47.480;19.216;2022-12-16T13:06:00;6.60;99.90
25877;DHT22;13692;47.480;19.216;2022-12-16T13:11:36;6.70;99.90
25877;DHT22;13692;47.480;19.216;2022-12-16T13:17:21;6.80;99.90
25877;DHT22;13692;47.480;19.216;2022-12-16T13:26:21;6.90;99.90
25877;DHT22;13692;47.480;19.216;2022-12-16T13:29:27;6.90;99.90
25877;DHT22;13692;47.480;19.216;2022-12-16T13:38:17;6.80;99.90
25877;DHT22;13692;47.480;19.216;2022-12-16T13:50:45;6.70;99.90
25877;DHT22;13692;47.480;19.216;2022-12-16T13:53:37;6.80;99.90
25877;DHT22;13692;47.480;19.216;2022-12-16T13:56:40;6.80;99.90
25877;DHT22;13692;47.480;19.216;2022-12-16T13:59:30;6.80;99.90
25877;DHT22;13692;47.480;19.216;2022-12-16T14:02:26;6.80;99.90
25877;DHT22;13692;47.480;19.216;2022-12-16T14:05:28;6.80;99.90
25877;DHT22;13692;47.480;19.216;2022-12-16T14:08:35;6.70;99.90
25877;DHT22;13692;47.480;19.216;2022-12-16T14:14:54;6.70;99.90
25877;DHT22;13692;47.480;19.216;2022-12-16T14:17:52;6.70;99.90
25877;DHT22;13692;47.480;19.216;2022-12-16T14:21:01;6.70;99.90
25877;DHT22;13692;47.480;19.216;2022-12-16T14:24:22;6.70;99.90
25877;DHT22;13692;47.480;19.216;2022-12-16T14:27:12;6.60;99.90
25877;DHT22;13692;47.480;19.216;2022-12-16T14:29:58;6.60;99.90
25877;DHT22;13692;47.480;19.216;2022-12-16T14:32:44;6.60;99.90
25877;DHT22;13692;47.480;19.216;2022-12-16T14:35:30;6.60;99.90
25877;DHT22;13692;47.480;19.216;2022-12-16T14:38:28;6.60;99.90
25877;DHT22;13692;47.480;19.216;2022-12-16T14:41:21;6.50;99.90
25877;DHT22;13692;47.480;19.216;2022-12-16T14:44:33;6.50;99.90
25877;DHT22;13692;47.480;19.216;2022-12-16T14:47:20;6.50;99.90
25877;DHT22;13692;47.480;19.216;2022-12-16T14:50:19;6.50;99.90
25877;DHT22;13692;47.480;19.216;2022-12-16T14:53:29;6.50;99.90
25877;DHT22;13692;47.480;19.216;2022-12-16T14:56:17;6.40;99.90
25877;DHT22;13692;47.480;19.216;2022-12-16T14:59:21;6.40;99.90
25877;DHT22;13692;47.480;19.216;2022-12-16T15:05:12;6.40;99.90
25877;DHT22;13692;47.480;19.216;2022-12-16T15:07:58;6.40;99.90
25877;DHT22;13692;47.480;19.216;2022-12-16T15:10:44;6.40;99.90
25877;DHT22;13692;47.480;19.216;2022-12-16T15:13:30;6.30;99.90
25877;DHT22;13692;47.480;19.216;2022-12-16T15:16:26;6.40;99.90
25877;DHT22;13692;47.480;19.216;2022-12-16T15:19:19;6.40;99.90
25877;DHT22;13692;47.480;19.216;2022-12-16T15:22:12;6.40;99.90
25877;DHT22;13692;47.480;19.216;2022-12-16T15:24:59;6.30;99.90
25877;DHT22;13692;47.480;19.216;2022-12-16T15:27:53;6.30;99.90
25877;DHT22;13692;47.480;19.216;2022-12-16T15:30:42;6.30;99.90
25877;DHT22;13692;47.480;19.216;2022-12-16T15:33:38;6.30;99.90
25877;DHT22;13692;47.480;19.216;2022-12-16T15:36:24;6.30;99.90
25877;DHT22;13692;47.480;19.216;2022-12-16T15:39:18;6.30;99.90
25877;DHT22;13692;47.480;19.216;2022-12-16T15:42:05;6.30;99.90
25877;DHT22;13692;47.480;19.216;2022-12-16T15:45:01;6.30;99.90
25877;DHT22;13692;47.480;19.216;2022-12-16T15:47:49;6.30;99.90
25877;DHT22;13692;47.480;19.216;2022-12-16T15:50:51;6.30;99.90
25877;DHT22;13692;47.480;19.216;2022-12-16T15:53:37;6.40;99.90
25877;DHT22;13692;47.480;19.216;2022-12-16T15:56:43;6.30;99.90
25877;DHT22;13692;47.480;19.216;2022-12-16T15:59:31;6.30;99.90
25877;DHT22;13692;47.480;19.216;2022-12-16T16:05:19;6.20;99.90
25877;DHT22;13692;47.480;19.216;2022-12-16T16:08:05;6.20;99.90
25877;DHT22;13692;47.480;19.216;2022-12-16T16:10:58;6.20;99.90
25877;DHT22;13692;47.480;19.216;2022-12-16T16:13:43;6.20;99.90
25877;DHT22;13692;47.480;19.216;2022-12-16T16:16:37;6.10;99.90
25877;DHT22;13692;47.480;19.216;2022-12-16T16:19:25;6.10;99.90
25877;DHT22;13692;47.480;19.216;2022-12-16T16:22:12;6.10;99.90
25877;DHT22;13692;47.480;19.216;2022-12-16T16:24:58;6.10;99.90
25877;DHT22;13692;47.480;19.216;2022-12-16T16:27:44;6.10;99.90
25877;DHT22;13692;47.480;19.216;2022-12-16T16:30:29;6.10;99.90
25877;DHT22;13692;47.480;19.216;2022-12-16T16:33:15;6.00;99.90
25877;DHT22;13692;47.480;19.216;2022-12-16T16:36:15;6.00;99.90
25877;DHT22;13692;47.480;19.216;2022-12-16T16:39:00;6.00;99.90
25877;DHT22;13692;47.480;19.216;2022-12-16T16:41:46;6.00;99.90
25877;DHT22;13692;47.480;19.216;2022-12-16T16:44:31;5.90;99.90
25877;DHT22;13692;47.480;19.216;2022-12-16T16:47:17;5.90;99.90
25877;DHT22;13692;47.480;19.216;2022-12-16T16:50:03;5.90;99.90
25877;DHT22;13692;47.480;19.216;2022-12-16T16:52:48;5.90;99.90
25877;DHT22;13692;47.480;19.216;2022-12-16T16:55:34;5.90;99.90
25877;DHT22;13692;47.480;19.216;2022-12-16T16:58:26;5.80;99.90
25877;DHT22;13692;47.480;19.216;2022-12-16T17:01:14;5.80;99.90
25877;DHT22;13692;47.480;19.216;2022-12-16T17:04:00;5.70;99.90
25877;DHT22;13692;47.480;19.216;2022-12-16T17:06:46;5.70;99.90
25877;DHT22;13692;47.480;19.216;2022-12-16T17:09:31;5.70;99.90
25877;DHT22;13692;47.480;19.216;2022-12-16T17:12:22;5.70;99.90
25877;DHT22;13692;47.480;19.216;2022-12-16T17:15:23;5.70;99.90
25877;DHT22;13692;47.480;19.216;2022-12-16T17:18:09;5.70;99.90
25877;DHT22;13692;47.480;19.216;2022-12-16T17:20:54;5.60;99.90
25877;DHT22;13692;47.480;19.216;2022-12-16T17:23:40;5.60;99.90
25877;DHT22;13692;47.480;19.216;2022-12-16T17:26:26;5.60;99.90
25877;DHT22;13692;47.480;19.216;2022-12-16T17:29:23;5.50;99.90
25877;DHT22;13692;47.480;19.216;2022-12-16T17:32:09;5.50;99.90
25877;DHT22;13692;47.480;19.216;2022-12-16T17:34:55;5.50;99.90
25877;DHT22;13692;47.480;19.216;2022-12-16T17:37:41;5.50;99.90
25877;DHT22;13692;47.480;19.216;2022-12-16T17:40:27;5.50;99.90
25877;DHT22;13692;47.480;19.216;2022-12-16T17:43:13;5.50;99.90
25877;DHT22;13692;47.480;19.216;2022-12-16T17:46:05;5.40;99.90
25877;DHT22;13692;47.480;19.216;2022-12-16T17:48:56;5.40;99.90
25877;DHT22;13692;47.480;19.216;2022-12-16T17:51:42;5.40;99.90
25877;DHT22;13692;47.480;19.216;2022-12-16T17:54:28;5.40;99.90
25877;DHT22;13692;47.480;19.216;2022-12-16T17:57:14;5.40;99.90
25877;DHT22;13692;47.480;19.216;2022-12-16T17:59:59;5.40;99.90
25877;DHT22;13692;47.480;19.216;2022-12-16T18:02:45;5.40;99.90
25877;DHT22;13692;47.480;19.216;2022-12-16T18:05:31;5.40;99.90
25877;DHT22;13692;47.480;19.216;2022-12-16T18:08:16;5.40;99.90
25877;DHT22;13692;47.480;19.216;2022-12-16T18:11:02;5.30;99.90
25877;DHT22;13692;47.480;19.216;2022-12-16T18:13:48;5.30;99.90
25877;DHT22;13692;47.480;19.216;2022-12-16T18:16:34;5.30;99.90
25877;DHT22;13692;47.480;19.216;2022-12-16T18:19:19;5.30;99.90
25877;DHT22;13692;47.480;19.216;2022-12-16T18:22:04;5.30;99.90
25877;DHT22;13692;47.480;19.216;2022-12-16T18:24:50;5.40;99.90
25877;DHT22;13692;47.480;19.216;2022-12-16T18:27:36;5.40;99.90
25877;DHT22;13692;47.480;19.216;2022-12-16T18:30:21;5.40;99.90
25877;DHT22;13692;47.480;19.216;2022-12-16T18:33:07;5.40;99.90
25877;DHT22;13692;47.480;19.216;2022-12-16T18:35:54;5.40;99.90
25877;DHT22;13692;47.480;19.216;2022-12-16T18:38:39;5.40;99.90
25877;DHT22;13692;47.480;19.216;2022-12-16T18:41:27;5.40;99.90
25877;DHT22;13692;47.480;19.216;2022-12-16T18:44:13;5.40;99.90
25877;DHT22;13692;47.480;19.216;2022-12-16T18:46:59;5.40;99.90
25877;DHT22;13692;47.480;19.216;2022-12-16T18:49:45;5.40;99.90
25877;DHT22;13692;47.480;19.216;2022-12-16T18:52:30;5.30;99.90
25877;DHT22;13692;47.480;19.216;2022-12-16T18:55:16;5.30;99.90
25877;DHT22;13692;47.480;19.216;2022-12-16T18:58:03;5.30;99.90
25877;DHT22;13692;47.480;19.216;2022-12-16T19:01:10;5.30;99.90
25877;DHT22;13692;47.480;19.216;2022-12-16T19:03:57;5.30;99.90
25877;DHT22;13692;47.480;19.216;2022-12-16T19:06:43;5.30;99.90
25877;DHT22;13692;47.480;19.216;2022-12-16T19:09:28;5.30;99.90
25877;DHT22;13692;47.480;19.216;2022-12-16T19:12:15;5.20;99.90
25877;DHT22;13692;47.480;19.216;2022-12-16T19:15:00;5.20;99.90
25877;DHT22;13692;47.480;19.216;2022-12-16T19:17:46;5.30;99.90